• Join FlightAware (Why Join?)
  • Login
  • US Flag 
08:43AM EDT


 

Airport Tracker/Info


-or-


 

Live Flight TrackerFlight Track Log ✈ N546QS ✈ 07-Jun-2013 ✈ KOMA - KSBN

Flight Track Log - Related Links

Times and Time Zones

All times are in EDT time to prevent confusion due to time zone crossing. See the N546QS flight status page for this flight to view local times or setup timezone preferences in your user account.

Time Position Orientation Groundspeed Altitude Reporting Facility
EDT Latitude Longitude Course Direction KTS MPH feet Rate Location/Type
02:52PM 41.2892 -95.8981 146° Southeast 206 237 1,700  Level Minneapolis Center
02:53PM 41.2400 -95.8544 146° Southeast 221 254 5,900 3,780 Climbing Minneapolis Center
02:54PM 41.1825 -95.7908 140° Southeast 249 287 9,800 3,180 Climbing Minneapolis Center
02:55PM 41.1625 -95.6431 100° East 321 369 12,500 3,000 Climbing Minneapolis Center
02:56PM 41.1744 -95.4956 84° East 386 444 16,000 3,240 Climbing Minneapolis Center
02:57PM 41.1867 -95.3394 84° East 424 488 19,300 3,000 Climbing Minneapolis Center
02:58PM 41.1997 -95.1786 84° East 438 504 22,200 2,700 Climbing Minneapolis Center
02:59PM 41.2133 -95.0075 84° East 458 527 24,900 2,700 Climbing Minneapolis Center
03:01PM 41.2425 -94.6489 84° East 496 571 30,100 2,520 Climbing Chicago Center
03:02PM 41.2586 -94.4272 84° East 496 571 32,900 1,680 Climbing Minneapolis Center
03:03PM 41.2697 -94.2489 85° East 491 565 34,000 960 Climbing Minneapolis Center
03:04PM 41.2819 -94.0794 84° East 488 562 35,000 1,020 Climbing Minneapolis Center
03:05PM 41.2978 -93.8669 84° East 485 558 36,200 900 Climbing Minneapolis Center
03:06PM 41.3097 -93.6869 85° East 488 562 36,900 540 Climbing Minneapolis Center
03:07PM 41.3214 -93.5033 85° East 496 571 37,400 960 Climbing Minneapolis Center
03:08PM 41.3353 -93.3181 84° East 503 579 39,000 1,620 Climbing Minneapolis Center
03:09PM 41.3458 -93.1397 85° East 493 567 40,800 900 Climbing Minneapolis Center
03:10PM 41.3575 -92.9617 85° East 488 562 40,900  Climbing Minneapolis Center
03:11PM 41.3692 -92.7750 85° East 501 577 40,900  Level Chicago Center
03:12PM 41.3792 -92.5892 86° East 505 581 40,900  Level Chicago Center
03:13PM 41.3892 -92.4056 86° East 500 575 40,900  Level Chicago Center
03:14PM 41.4003 -92.2072 86° East 499 574 40,900  Level Chicago Center
03:15PM 41.4103 -92.0228 86° East 503 579 40,900  Level Chicago Center
03:16PM 41.4203 -91.8375 86° East 507 583 40,900  Level Chicago Center
03:17PM 41.4294 -91.6494 86° East 513 590 40,900  Level Chicago Center
03:19PM 41.4406 -91.4272 86° East 510 587 40,900  Level Chicago Center
03:20PM 41.4500 -91.2308 86° East 511 588 40,900  Level Chicago Center
03:21PM 41.4583 -91.0403 87° East 514 592 40,900  Level Chicago Center
03:22PM 41.4667 -90.8503 87° East 513 590 40,900 -300 Level Chicago Center
03:23PM 41.4744 -90.6569 87° East 520 598 40,400 -1,500 Descending Chicago Center
03:24PM 41.4817 -90.4678 87° East 511 588 37,900 -1,980 Descending Chicago Center
03:25PM 41.4883 -90.2808 87° East 504 580 36,400 -1,740 Descending Chicago Center
03:26PM 41.4975 -90.0592 87° East 499 574 34,400 -1,800 Descending Chicago Center
03:27PM 41.5042 -89.8644 87° East 517 595 32,700 -1,680 Descending Chicago Center
03:28PM 41.5108 -89.6669 87° East 528 608 31,000 -1,740 Descending Chicago Center
03:29PM 41.5164 -89.4675 88° East 534 615 29,200 -1,680 Descending Chicago Center
03:30PM 41.5233 -89.2728 87° East 526 605 27,500 -1,740 Descending Chicago Center
03:31PM 41.5286 -89.0594 88° East 524 603 25,600 -1,740 Descending Chicago Center
03:32PM 41.5328 -88.8761 88° East 499 574 24,000 -1,260 Descending Chicago Center
03:33PM 41.5372 -88.7003 88° East 478 550 23,100 -960 Descending Chicago Center
03:34PM 41.5414 -88.5275 88° East 470 541 22,100 -1,020 Descending Chicago Center
03:35PM 41.5450 -88.3242 89° East 460 529 21,000 -600 Descending Chicago Center
03:36PM 41.5503 -88.1558 88° East 452 520 20,900 -60 Descending Chicago Center
03:37PM 41.5672 -87.9850 82° East 454 522 20,900  Level Chicago Center
03:38PM 41.5825 -87.8167 83° East 453 521 20,900  Level Chicago Center
03:39PM 41.5983 -87.6483 83° East 454 522 20,900 -60 Level Chicago Center
03:40PM 41.6122 -87.4819 84° East 454 522 20,800 -540 Descending Chicago Center
03:41PM 41.6067 -87.3114 92° East 459 528 19,800 -1,080 Descending Chicago Center
03:42PM 41.6075 -87.1164 90° East 437 503 18,600 -1,320 Descending Chicago Center
03:43PM 41.5456 -87.0022 126° Southeast 387 445 17,100 -1,680 Descending Chicago Center
03:44PM 41.5003 -86.8892 118° Southeast 358 412 15,200 -1,620 Descending Chicago Center
03:45PM 41.5053 -86.7744 87° East 310 357 13,800 -1,920 Descending Chicago Center
03:46PM 41.5333 -86.6733 70° East 280 322 11,300 -2,160 Descending Chicago Center
03:48PM 41.6003 -86.6633 North 245 282 9,400 -1,740 Descending Chicago Center
03:49PM 41.6639 -86.6653 359° North 232 267 7,700 -1,740 Descending Chicago Center
03:50PM 41.6989 -86.6075 51° Northeast 217 250 5,900 -1,560 Descending Chicago Center
03:51PM 41.6989 -86.5336 90° East 201 231 4,500 -1,560 Descending Chicago Center
03:52PM 41.7017 -86.4600 87° East 176 203 2,700 -1,260 Descending Chicago Center
03:53PM 41.7025 -86.4003 89° East 167 192 1,900 -540 Descending Chicago Center
03:54PM 41.7031 -86.3447 89° East 165 190 1,600 -300 Descending Chicago Center